Time;durP1;ratioP1;P1;durP2;ratioP2;P2;SDS_P1;SDS_P2;PMS_P1;PMS_P2;Temp;Humidity;BMP_temperature;BMP_pressure;BME280_temperature;BME280_humidity;BME280_pressure;Samples;Min_cycle;Max_cycle;Signal;HPM_P1;HPM_P2
2022/09/10 00:00:25;;;;;;;0.77;0.50;;;19.80;76.60;;;-142.21;100.00;112049.66;5074652;28;20283;-79
2022/09/10 00:02:54;;;;;;;2.83;1.20;;;19.80;78.00;;;-142.21;100.00;112049.66;5075450;28;20235;-80
2022/09/10 00:05:21;;;;;;;1.20;1.10;;;19.80;77.60;;;-142.21;100.00;112049.66;5074845;28;20489;-79
2022/09/10 00:07:48;;;;;;;1.17;1.07;;;19.90;77.60;;;-142.21;100.00;112049.66;5075294;28;20731;-79
2022/09/10 00:10:17;;;;;;;1.00;0.90;;;19.90;77.00;;;-142.21;100.00;112049.66;5075290;28;20887;-78
2022/09/10 00:12:47;;;;;;;2.00;1.30;;;19.90;77.70;;;-142.21;100.00;112049.66;5075050;28;20216;-79
2022/09/10 00:15:14;;;;;;;1.33;0.90;;;19.90;77.50;;;-142.21;100.00;112049.66;5075350;28;20449;-79
2022/09/10 00:17:42;;;;;;;2.47;0.87;;;19.90;77.30;;;-142.21;100.00;112049.66;5075348;28;20207;-80
2022/09/10 00:20:14;;;;;;;1.60;1.00;;;20.00;77.60;;;-142.21;100.00;112049.66;5075054;28;20239;-79
2022/09/10 00:22:42;;;;;;;2.27;0.77;;;19.90;77.30;;;-142.21;100.00;112049.66;5074583;28;20641;-78
2022/09/10 00:25:09;;;;;;;0.97;0.80;;;19.90;76.90;;;-142.21;100.00;112049.66;5075552;28;20604;-78
2022/09/10 00:27:36;;;;;;;1.73;1.00;;;19.90;76.50;;;-142.21;100.00;112049.66;5074474;28;20240;-79
2022/09/10 00:30:05;;;;;;;0.60;0.60;;;19.80;76.60;;;-142.21;100.00;112049.66;5074706;28;20328;-80
2022/09/10 00:32:33;;;;;;;2.33;0.90;;;19.80;76.60;;;-142.21;100.00;112049.66;5074014;28;20272;-80
2022/09/10 00:35:01;;;;;;;1.40;0.80;;;19.70;76.80;;;-142.21;100.00;112049.66;5075040;28;20304;-81
2022/09/10 00:37:29;;;;;;;0.80;0.80;;;19.70;76.50;;;-142.21;100.00;112049.66;5074337;28;20944;-80
2022/09/10 00:39:57;;;;;;;3.07;1.57;;;19.60;77.20;;;-142.21;100.00;112049.66;5074750;28;20217;-80
2022/09/10 00:42:24;;;;;;;3.17;0.90;;;19.60;77.30;;;-142.21;100.00;112049.66;5074057;28;20213;-78
2022/09/10 00:45:02;;;;;;;2.53;0.87;;;19.50;77.10;;;-142.21;100.00;112049.66;5075042;28;20561;-79
2022/09/10 00:47:37;;;;;;;3.03;0.83;;;19.40;77.70;;;-142.21;100.00;112049.66;5054359;28;20225;-77
2022/09/10 00:50:15;;;;;;;1.80;0.90;;;19.40;77.80;;;-142.21;100.00;112049.66;5065073;28;20232;-79
2022/09/10 00:52:46;;;;;;;3.00;1.10;;;19.40;78.10;;;-142.21;100.00;112049.66;5074358;28;20203;-80
2022/09/10 00:55:15;;;;;;;1.43;0.93;;;19.30;78.30;;;-142.21;100.00;112049.66;5074426;28;20544;-79
2022/09/10 00:57:46;;;;;;;0.90;0.80;;;19.30;78.50;;;-142.21;100.00;112049.66;5073698;28;20685;-78
2022/09/10 01:00:16;;;;;;;0.90;0.70;;;19.20;78.70;;;-142.21;100.00;112049.66;5074774;28;20197;-80
2022/09/10 01:02:44;;;;;;;3.67;1.00;;;19.30;78.80;;;-142.21;100.00;112049.66;5073811;28;20228;-80
2022/09/10 01:05:13;;;;;;;1.50;0.70;;;19.30;78.80;;;-142.21;100.00;112049.66;5075043;28;20288;-82
2022/09/10 01:07:41;;;;;;;1.30;1.00;;;19.30;78.80;;;-142.21;100.00;112049.66;5075102;28;20209;-79
2022/09/10 01:10:16;;;;;;;1.27;1.00;;;19.20;78.90;;;-142.21;100.00;112049.66;5074075;28;20209;-80
2022/09/10 01:13:14;;;;;;;2.63;0.87;;;19.10;79.50;;;-142.21;100.00;112049.66;5074167;28;20599;-79
2022/09/10 01:15:54;;;;;;;2.80;1.10;;;19.10;80.00;;;-142.21;100.00;112049.66;5074221;28;20467;-80
2022/09/10 01:18:39;;;;;;;1.23;0.70;;;19.10;80.20;;;-142.21;100.00;112049.66;5073721;28;20271;-80
2022/09/10 01:21:30;;;;;;;2.53;0.60;;;19.10;80.20;;;-142.21;100.00;112049.66;5074324;28;20472;-80
2022/09/10 01:24:44;;;;;;;0.87;0.73;;;19.00;80.20;;;-142.21;100.00;112049.66;5074030;28;20512;-79
2022/09/10 01:27:40;;;;;;;0.63;0.63;;;19.00;80.40;;;-142.21;100.00;112049.66;5054174;28;20472;-80
2022/09/10 01:30:14;;;;;;;1.37;0.90;;;19.00;80.50;;;-142.21;100.00;112049.66;5053741;28;20302;-80
2022/09/10 01:32:59;;;;;;;3.03;0.90;;;18.90;80.40;;;-142.21;100.00;112049.66;5053368;28;20444;-78
2022/09/10 01:35:37;;;;;;;2.13;0.80;;;19.00;80.60;;;-142.21;100.00;112049.66;5053148;28;20449;-81
2022/09/10 01:38:12;;;;;;;2.73;1.17;;;19.00;80.10;;;-142.21;100.00;112049.66;5049386;28;20802;-80
2022/09/10 01:40:40;;;;;;;0.80;0.80;;;19.10;80.30;;;-142.21;100.00;112049.66;5053550;28;20251;-77
2022/09/10 01:43:11;;;;;;;0.70;0.70;;;19.10;80.00;;;-142.21;100.00;112049.66;5053836;28;20448;-80
2022/09/10 01:45:58;;;;;;;1.37;0.80;;;19.10;80.20;;;-142.21;100.00;112049.66;5052848;28;20627;-81
2022/09/10 01:48:58;;;;;;;2.00;0.83;;;19.20;80.00;;;-142.21;100.00;112049.66;5068809;28;20193;-78
2022/09/10 01:51:41;;;;;;;0.93;0.70;;;19.20;79.80;;;-142.21;100.00;112049.66;5073103;28;20673;-80
2022/09/10 01:54:35;;;;;;;1.13;0.70;;;19.20;79.80;;;-142.21;100.00;112049.66;5073431;28;20193;-78
2022/09/10 01:57:18;;;;;;;3.13;1.00;;;19.20;80.30;;;-142.21;100.00;112049.66;5043224;28;20224;-80
2022/09/10 01:59:59;;;;;;;2.73;0.80;;;19.20;79.80;;;-142.21;100.00;112049.66;5037795;28;20615;-81
2022/09/10 02:02:34;;;;;;;1.53;1.03;;;19.30;80.00;;;-142.21;100.00;112049.66;5073002;28;20208;-81
2022/09/10 02:05:03;;;;;;;0.80;0.80;;;19.30;79.50;;;-142.21;100.00;112049.66;5073104;28;20978;-81
2022/09/10 02:07:33;;;;;;;0.70;0.70;;;19.20;79.50;;;-142.21;100.00;112049.66;5072997;28;20283;-78
2022/09/10 02:10:04;;;;;;;1.00;0.90;;;19.20;79.60;;;-142.21;100.00;112049.66;5072702;28;20463;-81
2022/09/10 02:12:32;;;;;;;1.60;1.40;;;19.20;80.40;;;-142.21;100.00;112049.66;5072599;28;20213;-77
2022/09/10 02:15:01;;;;;;;3.10;0.93;;;19.20;79.50;;;-142.21;100.00;112049.66;5073043;28;20206;-81
2022/09/10 02:17:33;;;;;;;1.83;1.00;;;19.20;79.80;;;-142.21;100.00;112049.66;5072620;28;20236;-80
2022/09/10 02:20:04;;;;;;;2.70;0.83;;;19.30;79.80;;;-142.21;100.00;112049.66;5072704;28;20672;-80
2022/09/10 02:22:36;;;;;;;1.13;0.50;;;19.30;79.50;;;-142.21;100.00;112049.66;5071871;28;20186;-80
2022/09/10 02:25:05;;;;;;;0.97;0.67;;;19.30;79.40;;;-142.21;100.00;112049.66;5054742;28;20216;-77
2022/09/10 02:27:32;;;;;;;1.43;0.80;;;19.30;79.40;;;-142.21;100.00;112049.66;5072117;28;20458;-80
2022/09/10 02:30:01;;;;;;;0.80;0.73;;;19.30;79.40;;;-142.21;100.00;112049.66;5072202;28;20716;-81
2022/09/10 02:32:28;;;;;;;0.63;0.63;;;19.30;79.50;;;-142.21;100.00;112049.66;5072012;28;20213;-82
2022/09/10 02:34:55;;;;;;;1.40;0.87;;;19.40;79.60;;;-142.21;100.00;112049.66;5072453;28;20366;-79
2022/09/10 02:37:23;;;;;;;4.57;0.90;;;19.40;79.40;;;-142.21;100.00;112049.66;5072437;28;20238;-82
2022/09/10 02:39:50;;;;;;;0.67;0.67;;;19.40;79.40;;;-142.21;100.00;112049.66;5072444;28;20248;-79
2022/09/10 02:42:17;;;;;;;2.00;0.87;;;19.40;79.50;;;-142.21;100.00;112049.66;5072603;28;20236;-78
2022/09/10 02:44:45;;;;;;;2.67;0.93;;;19.40;79.80;;;-142.21;100.00;112049.66;5071676;28;20237;-79
2022/09/10 02:47:14;;;;;;;1.47;0.70;;;19.40;79.60;;;-142.21;100.00;112049.66;5052718;28;20561;-79
2022/09/10 02:49:41;;;;;;;0.90;0.90;;;19.30;79.50;;;-142.21;100.00;112049.66;5052035;28;20448;-77
2022/09/10 02:52:08;;;;;;;1.20;0.93;;;19.30;79.90;;;-142.21;100.00;112049.66;5052694;28;20252;-78
2022/09/10 02:54:35;;;;;;;2.23;0.80;;;19.30;80.00;;;-142.21;100.00;112049.66;5051872;28;20535;-78
2022/09/10 02:57:03;;;;;;;2.23;0.90;;;19.30;79.80;;;-142.21;100.00;112049.66;5057645;28;20200;-78
2022/09/10 02:59:31;;;;;;;1.03;0.80;;;19.30;79.70;;;-142.21;100.00;112049.66;5071619;28;20267;-78
2022/09/10 03:01:58;;;;;;;1.43;0.73;;;19.30;79.80;;;-142.21;100.00;112049.66;5072335;28;20450;-79
2022/09/10 03:04:27;;;;;;;0.93;0.80;;;19.30;79.70;;;-142.21;100.00;112049.66;5072025;28;20283;-80
2022/09/10 03:06:54;;;;;;;1.10;1.00;;;19.30;80.10;;;-142.21;100.00;112049.66;5071938;28;20197;-81
2022/09/10 03:09:22;;;;;;;1.60;1.03;;;19.30;80.10;;;-142.21;100.00;112049.66;5072190;28;20485;-78
2022/09/10 03:11:50;;;;;;;5.17;0.93;;;19.40;80.20;;;-142.21;100.00;112049.66;5054045;28;20491;-82
2022/09/10 03:14:21;;;;;;;1.53;0.87;;;19.40;80.40;;;-142.21;100.00;112049.66;5071871;28;20213;-77
2022/09/10 03:16:48;;;;;;;1.13;0.90;;;19.50;80.30;;;-142.21;100.00;112049.66;5071988;28;20200;-78
2022/09/10 03:19:16;;;;;;;1.10;1.00;;;19.50;79.80;;;-142.21;100.00;112049.66;5072220;28;20296;-79
2022/09/10 03:21:46;;;;;;;0.90;0.80;;;19.40;80.00;;;-142.21;100.00;112049.66;5071215;28;20196;-77
2022/09/10 03:24:13;;;;;;;1.07;0.73;;;19.30;80.10;;;-142.21;100.00;112049.66;5072113;28;20709;-78
2022/09/10 03:26:42;;;;;;;1.07;0.80;;;19.30;80.40;;;-142.21;100.00;112049.66;5071294;28;20250;-81
2022/09/10 03:29:09;;;;;;;2.53;1.10;;;19.30;80.30;;;-142.21;100.00;112049.66;5071725;28;20240;-82
2022/09/10 03:31:36;;;;;;;1.23;0.70;;;19.20;80.60;;;-142.21;100.00;112049.66;5071382;28;21069;-79
2022/09/10 03:34:05;;;;;;;1.70;1.03;;;19.20;80.70;;;-142.21;100.00;112049.66;5075203;28;20549;-78
2022/09/10 03:36:32;;;;;;;2.53;0.80;;;19.20;80.70;;;-142.21;100.00;112049.66;5075334;28;20209;-79
2022/09/10 03:39:01;;;;;;;1.80;1.00;;;19.20;80.40;;;-142.21;100.00;112049.66;5076330;28;20240;-78
2022/09/10 03:41:29;;;;;;;4.43;1.10;;;19.30;80.50;;;-142.21;100.00;112049.66;5075259;28;20649;-79
2022/09/10 03:43:56;;;;;;;1.30;1.00;;;19.30;80.30;;;-142.21;100.00;112049.66;5076073;28;20209;-78
2022/09/10 03:46:24;;;;;;;1.80;1.00;;;19.30;80.50;;;-142.21;100.00;112049.66;5075611;28;20435;-78
2022/09/10 03:48:52;;;;;;;1.33;0.63;;;19.20;80.50;;;-142.21;100.00;112049.66;5075560;28;20299;-80
2022/09/10 03:51:19;;;;;;;2.27;1.00;;;19.10;80.70;;;-142.21;100.00;112049.66;5075570;28;20514;-81
2022/09/10 03:53:47;;;;;;;1.00;0.83;;;19.10;81.00;;;-142.21;100.00;112049.66;5075374;28;20205;-80
2022/09/10 03:56:18;;;;;;;0.83;0.73;;;19.10;81.00;;;-142.21;100.00;112049.66;5075609;28;20796;-81
2022/09/10 03:58:47;;;;;;;1.77;0.70;;;19.10;81.30;;;-142.21;100.00;112049.66;5075110;28;20423;-82
2022/09/10 04:01:15;;;;;;;2.53;1.10;;;19.10;81.50;;;-142.21;100.00;112049.66;5075694;28;20449;-79
2022/09/10 04:03:42;;;;;;;2.00;1.00;;;19.00;81.30;;;-142.21;100.00;112049.66;5074889;28;20474;-81
2022/09/10 04:06:10;;;;;;;1.90;0.83;;;19.10;81.70;;;-142.21;100.00;112049.66;5075124;28;20470;-81
2022/09/10 04:08:37;;;;;;;1.37;0.83;;;19.00;81.60;;;-142.21;100.00;112049.66;5074975;28;20450;-80
2022/09/10 04:11:06;;;;;;;1.83;1.03;;;19.10;81.50;;;-142.21;100.00;112049.66;5074995;28;20959;-80
2022/09/10 04:13:34;;;;;;;1.80;1.40;;;19.10;81.70;;;-142.21;100.00;112049.66;5074575;28;20241;-81
2022/09/10 04:16:02;;;;;;;3.57;1.47;;;19.10;82.00;;;-142.21;100.00;112049.66;5075174;28;20516;-78
2022/09/10 04:18:30;;;;;;;0.87;0.80;;;19.20;81.60;;;-142.21;100.00;112049.66;5075366;28;20288;-80
2022/09/10 04:20:58;;;;;;;1.73;0.90;;;19.20;81.50;;;-142.21;100.00;112049.66;5074813;28;20485;-79
2022/09/10 04:23:25;;;;;;;2.00;1.07;;;19.20;81.50;;;-142.21;100.00;112049.66;5075330;28;20494;-81
2022/09/10 04:25:52;;;;;;;2.13;0.90;;;19.20;81.50;;;-142.21;100.00;112049.66;5074579;28;20610;-81
2022/09/10 04:28:20;;;;;;;1.47;0.80;;;19.20;81.20;;;-142.21;100.00;112049.66;5074813;28;20251;-80
2022/09/10 04:30:49;;;;;;;2.00;1.20;;;19.20;81.10;;;-142.21;100.00;112049.66;5074663;28;20241;-78
2022/09/10 04:33:17;;;;;;;1.07;1.00;;;19.20;81.30;;;-142.21;100.00;112049.66;5075032;28;20229;-79
2022/09/10 04:35:44;;;;;;;1.97;0.87;;;19.10;81.40;;;-142.21;100.00;112049.66;5074041;28;20228;-79
2022/09/10 04:38:11;;;;;;;2.27;1.00;;;19.20;81.30;;;-142.21;100.00;112049.66;5074888;28;20534;-80
2022/09/10 04:40:39;;;;;;;1.50;0.77;;;19.10;81.10;;;-142.21;100.00;112049.66;5074320;28;20732;-78
2022/09/10 04:43:07;;;;;;;1.57;1.10;;;19.20;81.60;;;-142.21;100.00;112049.66;5074873;28;20471;-79
2022/09/10 04:45:34;;;;;;;1.83;1.10;;;19.30;81.40;;;-142.21;100.00;112049.66;5073256;28;20201;-77
2022/09/10 04:48:03;;;;;;;1.00;0.90;;;19.30;81.00;;;-142.21;100.00;112049.66;5074572;28;20260;-78
2022/09/10 04:50:30;;;;;;;1.00;0.67;;;19.20;81.00;;;-142.21;100.00;112049.66;5074504;28;20725;-77
2022/09/10 04:52:58;;;;;;;2.63;0.70;;;19.30;80.90;;;-142.21;100.00;112049.66;5074344;28;20315;-79
2022/09/10 04:55:25;;;;;;;1.57;0.87;;;19.20;80.90;;;-142.21;100.00;112049.66;5074369;28;20625;-77
2022/09/10 04:57:53;;;;;;;0.97;0.80;;;19.20;80.90;;;-142.21;100.00;112049.66;5074018;28;20213;-78
2022/09/10 05:00:20;;;;;;;3.73;1.90;;;19.20;81.10;;;-142.21;100.00;112049.66;5074247;28;20474;-78
2022/09/10 05:02:48;;;;;;;1.10;0.70;;;19.20;81.30;;;-142.21;100.00;112049.66;5073574;28;20471;-79
2022/09/10 05:05:17;;;;;;;1.63;1.10;;;19.10;80.90;;;-142.21;100.00;112049.66;5074862;28;20455;-77
2022/09/10 05:07:44;;;;;;;0.73;0.70;;;19.10;81.60;;;-142.21;100.00;112049.66;5073957;28;20519;-80
2022/09/10 05:10:12;;;;;;;2.03;1.00;;;19.10;82.00;;;-142.21;100.00;112049.66;5074273;28;20489;-78
2022/09/10 05:12:39;;;;;;;1.60;1.00;;;19.00;82.00;;;-142.21;100.00;112049.66;5073809;28;20596;-77
2022/09/10 05:15:08;;;;;;;0.97;0.80;;;19.00;82.10;;;-142.21;100.00;112049.66;5074177;28;20205;-78
2022/09/10 05:17:36;;;;;;;1.83;1.37;;;19.00;82.20;;;-142.21;100.00;112049.66;5073709;28;20805;-78
2022/09/10 05:20:05;;;;;;;1.50;0.90;;;19.00;82.20;;;-142.21;100.00;112049.66;5053995;28;20458;-79
2022/09/10 05:22:34;;;;;;;1.80;0.90;;;19.00;82.30;;;-142.21;100.00;112049.66;5053834;28;20198;-79
2022/09/10 05:25:02;;;;;;;2.40;0.93;;;19.00;82.50;;;-142.21;100.00;112049.66;5054267;28;20745;-81
2022/09/10 05:27:29;;;;;;;1.43;0.93;;;19.00;82.10;;;-142.21;100.00;112049.66;5054193;28;20301;-80
2022/09/10 05:29:57;;;;;;;0.90;0.77;;;19.00;82.40;;;-142.21;100.00;112049.66;5064395;28;20487;-79
2022/09/10 05:32:24;;;;;;;0.80;0.80;;;19.00;82.50;;;-142.21;100.00;112049.66;5073457;28;20482;-78
2022/09/10 05:34:51;;;;;;;1.30;0.83;;;19.00;82.70;;;-142.21;100.00;112049.66;5073427;28;20260;-80
2022/09/10 05:37:19;;;;;;;2.83;1.00;;;18.90;82.70;;;-142.21;100.00;112049.66;5073421;28;20876;-79
2022/09/10 05:39:48;;;;;;;1.37;1.07;;;18.90;83.70;;;-142.21;100.00;112049.66;5073300;28;20213;-78
2022/09/10 05:42:15;;;;;;;1.33;1.10;;;18.90;83.20;;;-142.21;100.00;112049.66;5073789;28;20802;-77
2022/09/10 05:44:42;;;;;;;2.03;0.93;;;18.90;83.10;;;-142.21;100.00;112049.66;5073263;28;20291;-81
2022/09/10 05:47:09;;;;;;;2.80;1.20;;;18.90;83.40;;;-142.21;100.00;112049.66;5073600;28;20208;-77
2022/09/10 05:49:37;;;;;;;1.20;0.80;;;18.90;83.10;;;-142.21;100.00;112049.66;5073248;28;20889;-78
2022/09/10 05:52:04;;;;;;;1.13;0.87;;;19.00;83.00;;;-142.21;100.00;112049.66;5073496;28;20495;-79
2022/09/10 05:54:31;;;;;;;2.87;1.00;;;19.10;82.90;;;-142.21;100.00;112049.66;5073662;28;20236;-78
2022/09/10 05:57:00;;;;;;;1.60;0.83;;;19.10;82.70;;;-142.21;100.00;112049.66;5072995;28;20484;-79
2022/09/10 05:59:28;;;;;;;0.90;0.90;;;19.10;82.50;;;-142.21;100.00;112049.66;5056768;28;20247;-78
2022/09/10 06:01:59;;;;;;;3.27;1.00;;;19.10;82.20;;;-142.21;100.00;112049.66;5073020;28;20892;-79
2022/09/10 06:04:26;;;;;;;1.33;1.23;;;19.10;82.20;;;-142.21;100.00;112049.66;5073347;28;20452;-77
2022/09/10 06:06:54;;;;;;;1.80;1.10;;;19.20;82.20;;;-142.21;100.00;112049.66;5072679;28;20494;-78
2022/09/10 06:09:21;;;;;;;2.10;1.23;;;19.20;82.20;;;-142.21;100.00;112049.66;5073058;28;20239;-78
2022/09/10 06:11:49;;;;;;;1.37;1.10;;;19.30;82.10;;;-142.21;100.00;112049.66;5072336;28;20525;-77
2022/09/10 06:14:19;;;;;;;1.60;0.97;;;19.30;82.30;;;-142.21;100.00;112049.66;5073322;28;20411;-80
2022/09/10 06:16:48;;;;;;;2.00;0.80;;;19.20;82.60;;;-142.21;100.00;112049.66;5072764;28;20530;-80
2022/09/10 06:19:15;;;;;;;1.30;0.80;;;19.20;82.10;;;-142.21;100.00;112049.66;5072988;28;20986;-81
2022/09/10 06:21:42;;;;;;;2.03;1.17;;;19.20;82.10;;;-142.21;100.00;112049.66;5071901;28;20494;-79
2022/09/10 06:24:10;;;;;;;2.83;1.00;;;19.10;82.10;;;-142.21;100.00;112049.66;5072699;28;20296;-81
2022/09/10 06:26:37;;;;;;;1.10;0.90;;;19.20;82.30;;;-142.21;100.00;112049.66;5072451;28;20508;-78
2022/09/10 06:29:05;;;;;;;1.27;0.97;;;19.20;82.30;;;-142.21;100.00;112049.66;5072701;28;21022;-81
2022/09/10 06:31:33;;;;;;;1.40;0.80;;;19.20;82.20;;;-142.21;100.00;112049.66;5072416;28;20498;-80
2022/09/10 06:34:02;;;;;;;1.43;0.90;;;19.20;82.10;;;-142.21;100.00;112049.66;5063129;28;20252;-78
2022/09/10 06:36:30;;;;;;;1.87;0.83;;;19.30;82.30;;;-142.21;100.00;112049.66;5052284;28;20205;-80
2022/09/10 06:38:58;;;;;;;5.17;1.07;;;19.30;81.90;;;-142.21;100.00;112049.66;5051959;28;20967;-81
2022/09/10 06:41:26;;;;;;;1.50;1.00;;;19.30;81.60;;;-142.21;100.00;112049.66;5052365;28;20206;-79
2022/09/10 06:43:54;;;;;;;2.20;1.00;;;19.30;81.70;;;-142.21;100.00;112049.66;5051951;28;20677;-79
2022/09/10 06:46:21;;;;;;;1.97;1.20;;;19.20;81.60;;;-142.21;100.00;112049.66;5069854;28;20278;-80
2022/09/10 06:48:50;;;;;;;2.17;0.90;;;19.30;81.70;;;-142.21;100.00;112049.66;5072081;28;20537;-80
2022/09/10 06:51:17;;;;;;;2.30;1.00;;;19.30;81.40;;;-142.21;100.00;112049.66;5072540;28;20825;-77
2022/09/10 06:53:46;;;;;;;1.30;0.90;;;19.30;81.40;;;-142.21;100.00;112049.66;5071478;28;20609;-76
2022/09/10 06:56:14;;;;;;;2.07;0.83;;;19.30;81.50;;;-142.21;100.00;112049.66;5071931;28;20204;-77
2022/09/10 06:58:41;;;;;;;1.20;1.10;;;19.30;82.00;;;-142.21;100.00;112049.66;5071524;28;20629;-76
2022/09/10 07:01:10;;;;;;;2.27;1.20;;;19.30;81.10;;;-142.21;100.00;112049.66;5072077;28;20799;-77
2022/09/10 07:03:38;;;;;;;2.23;0.90;;;19.40;81.70;;;-142.21;100.00;112049.66;5072228;28;20275;-75
2022/09/10 07:06:09;;;;;;;0.93;0.70;;;19.40;81.20;;;-142.21;100.00;112049.66;5071360;28;20497;-76
2022/09/10 07:08:38;;;;;;;1.00;0.90;;;19.40;81.30;;;-142.21;100.00;112049.66;5071697;28;20483;-79
2022/09/10 07:11:11;;;;;;;1.93;0.87;;;19.40;81.10;;;-142.21;100.00;112049.66;5071770;28;20197;-75
2022/09/10 07:13:40;;;;;;;2.00;1.13;;;19.40;81.30;;;-142.21;100.00;112049.66;5064063;28;20209;-79
2022/09/10 07:16:07;;;;;;;5.70;1.07;;;19.50;81.00;;;-142.21;100.00;112049.66;5072403;28;20205;-80
2022/09/10 07:18:36;;;;;;;2.70;1.00;;;19.50;80.70;;;-142.21;100.00;112049.66;5071993;28;20246;-78
2022/09/10 07:21:13;;;;;;;0.70;0.70;;;19.50;80.30;;;-142.21;100.00;112049.66;5071768;28;20455;-79
2022/09/10 07:23:42;;;;;;;2.70;1.03;;;19.60;80.70;;;-142.21;100.00;112049.66;5072100;28;20459;-77
2022/09/10 07:26:12;;;;;;;0.97;0.73;;;19.60;80.20;;;-142.21;100.00;112049.66;5072143;28;20197;-78
2022/09/10 07:28:42;;;;;;;1.27;1.17;;;19.70;79.90;;;-142.21;100.00;112049.66;5071726;28;20284;-77
2022/09/10 07:31:18;;;;;;;3.43;1.23;;;19.80;79.70;;;-142.21;100.00;112049.66;5072483;28;20855;-78
2022/09/10 07:33:46;;;;;;;1.80;0.90;;;19.80;79.60;;;-142.21;100.00;112049.66;5071375;28;20224;-78
2022/09/10 07:36:18;;;;;;;1.63;1.20;;;19.90;79.50;;;-142.21;100.00;112049.66;5071588;28;20646;-77
2022/09/10 07:38:45;;;;;;;1.10;0.90;;;20.00;79.30;;;-142.21;99.40;112049.66;5071347;28;20435;-77
2022/09/10 07:41:15;;;;;;;1.80;0.73;;;20.10;78.50;;;-142.21;99.54;112049.66;5066628;28;20566;-76
2022/09/10 07:43:43;;;;;;;1.27;0.70;;;20.20;78.80;;;-142.21;98.45;112049.66;5051319;28;20666;-76
2022/09/10 07:46:19;;;;;;;0.90;0.77;;;20.20;78.00;;;-142.21;98.73;112049.66;5065666;28;20197;-77
2022/09/10 07:48:47;;;;;;;0.50;0.50;;;20.30;78.00;;;-142.21;97.91;112049.66;5071664;28;20189;-78
2022/09/10 07:51:18;;;;;;;1.13;0.90;;;20.30;77.60;;;-142.21;97.67;112049.66;5071984;28;20657;-78
2022/09/10 07:53:46;;;;;;;3.27;0.97;;;20.20;77.50;;;-142.21;96.34;112049.66;5071690;28;20242;-78
2022/09/10 07:56:13;;;;;;;2.13;0.80;;;20.20;76.90;;;-142.21;96.62;112049.66;5071800;28;20284;-79
2022/09/10 07:58:40;;;;;;;0.73;0.70;;;20.20;76.70;;;-142.21;96.30;112049.66;5068848;28;20630;-77
2022/09/10 08:01:11;;;;;;;0.53;0.50;;;20.20;77.10;;;-142.21;96.44;112049.66;5061164;28;20271;-78
2022/09/10 08:03:39;;;;;;;0.70;0.70;;;20.20;77.10;;;-142.21;96.31;112049.66;5072028;28;20447;-76
2022/09/10 08:06:09;;;;;;;1.03;0.83;;;20.20;76.70;;;-142.21;95.61;112049.66;5070737;28;20288;-78
2022/09/10 08:08:39;;;;;;;1.93;0.57;;;20.20;76.10;;;-142.21;95.65;112049.66;5069701;28;20727;-77
2022/09/10 08:11:10;;;;;;;3.03;0.87;;;20.10;76.30;;;-142.21;96.42;112049.66;5071242;28;20560;-78
2022/09/10 08:13:39;;;;;;;1.37;1.00;;;20.10;77.10;;;-142.21;96.35;112049.66;5071275;28;20687;-76
2022/09/10 08:16:08;;;;;;;5.33;0.90;;;20.10;77.00;;;-142.21;95.64;112049.66;5070865;28;20576;-78
2022/09/10 08:18:36;;;;;;;0.80;0.70;;;20.10;76.60;;;-142.21;96.32;112049.66;5070635;28;20295;-78
2022/09/10 08:21:07;;;;;;;1.93;0.80;;;20.20;76.90;;;-142.21;94.13;112049.66;5073957;28;20483;-77
2022/09/10 08:23:35;;;;;;;1.90;0.80;;;20.20;75.80;;;-142.21;94.07;112049.66;5073562;28;20276;-76
2022/09/10 08:26:05;;;;;;;3.03;1.03;;;20.20;75.80;;;-142.21;93.13;112049.66;5066805;28;20288;-78
2022/09/10 08:28:32;;;;;;;0.90;0.87;;;20.40;75.60;;;-142.21;92.28;112049.66;5054727;28;20697;-78
2022/09/10 08:31:03;;;;;;;2.27;1.10;;;20.50;74.80;;;-142.21;91.14;112049.66;5067450;28;20237;-80
2022/09/10 08:33:31;;;;;;;1.13;0.80;;;20.60;74.20;;;-142.21;91.74;112049.66;5073860;28;20225;-79
2022/09/10 08:35:59;;;;;;;0.80;0.67;;;20.60;74.40;;;-142.21;90.04;112049.66;5072889;28;20197;-77
2022/09/10 08:38:31;;;;;;;1.70;0.80;;;20.70;73.50;;;-142.21;88.72;112049.66;5071139;28;20197;-78
2022/09/10 08:40:59;;;;;;;2.23;0.80;;;20.70;72.50;;;-142.21;88.63;112049.66;5072831;28;20201;-79
2022/09/10 08:43:42;;;;;;;1.93;0.90;;;20.70;72.60;;;-142.21;89.17;112049.66;5074583;28;20255;-78
2022/09/10 08:46:19;;;;;;;1.27;0.67;;;20.90;72.80;;;-142.21;89.14;112049.66;5070196;28;20197;-79
2022/09/10 08:48:55;;;;;;;2.30;0.90;;;21.00;72.30;;;-142.21;88.27;112049.66;5074354;28;20185;-77
2022/09/10 08:51:28;;;;;;;1.57;0.70;;;21.10;71.40;;;-142.21;88.20;112049.66;5074255;28;20207;-78
2022/09/10 08:54:03;;;;;;;1.70;0.70;;;21.20;71.70;;;-142.21;87.29;112049.66;5073390;28;20213;-77
2022/09/10 08:56:32;;;;;;;1.70;0.77;;;21.10;70.40;;;-142.21;88.46;112049.66;5073037;28;20287;-77
2022/09/10 08:59:08;;;;;;;2.17;1.10;;;21.00;71.90;;;-142.21;86.74;112049.66;5073210;28;20255;-76
2022/09/10 09:01:44;;;;;;;2.50;1.23;;;20.90;70.80;;;-142.21;87.81;112049.66;5059006;28;20263;-77
2022/09/10 09:04:19;;;;;;;1.77;0.90;;;20.90;71.60;;;-142.21;87.54;112049.66;5070516;28;20234;-77
2022/09/10 09:06:56;;;;;;;3.73;1.17;;;20.90;71.20;;;-142.21;88.05;112049.66;5073422;28;20223;-77
2022/09/10 09:09:24;;;;;;;1.77;0.83;;;21.00;71.60;;;-142.21;88.42;112049.66;5073313;28;20223;-76
2022/09/10 09:12:02;;;;;;;2.40;0.93;;;21.00;71.90;;;-142.21;88.51;112049.66;5073447;28;20452;-76
2022/09/10 09:14:51;;;;;;;2.50;1.07;;;21.20;72.00;;;-142.21;86.79;112049.66;5059168;28;20758;-77
2022/09/10 09:17:37;;;;;;;1.97;1.10;;;21.40;70.90;;;-142.21;86.03;112049.66;5053575;28;20747;-76
2022/09/10 09:20:16;;;;;;;1.30;0.80;;;21.40;70.20;;;-142.21;86.18;112049.66;5035662;28;20611;-78
2022/09/10 09:22:52;;;;;;;3.27;1.40;;;21.40;70.00;;;-142.21;86.38;112049.66;5053968;28;20217;-75
2022/09/10 09:25:27;;;;;;;2.43;1.33;;;21.40;70.50;;;-142.21;85.78;112049.66;5060627;28;20649;-74
2022/09/10 09:27:57;;;;;;;2.07;1.00;;;21.40;70.30;;;-142.21;84.45;112049.66;5073277;28;20192;-78
2022/09/10 09:30:34;;;;;;;2.97;1.43;;;21.50;69.50;;;-142.21;85.65;112049.66;5072573;28;20286;-77
2022/09/10 09:33:13;;;;;;;1.17;0.77;;;21.70;69.80;;;-142.21;85.13;112049.66;5056195;28;20267;-76
2022/09/10 09:35:51;;;;;;;3.00;1.10;;;21.70;69.40;;;-142.21;85.11;112049.66;5073207;28;20228;-78
2022/09/10 09:38:23;;;;;;;1.53;0.90;;;21.80;69.40;;;-142.21;84.42;112049.66;5061737;28;20198;-76
2022/09/10 09:40:56;;;;;;;1.77;0.90;;;21.90;69.10;;;-142.21;84.44;112049.66;5072669;28;20258;-79
2022/09/10 09:43:51;;;;;;;1.70;0.93;;;21.90;68.80;;;-142.21;84.76;112049.66;5065899;28;20186;-77
2022/09/10 09:46:23;;;;;;;1.43;0.80;;;21.90;68.60;;;-142.21;84.34;112049.66;5053439;28;20198;-75
2022/09/10 09:48:56;;;;;;;1.63;0.97;;;22.00;68.30;;;-142.21;84.16;112049.66;5053224;28;20256;-76
2022/09/10 09:51:25;;;;;;;1.30;1.00;;;22.00;68.30;;;-142.21;84.83;112049.66;5056752;28;20205;-76
2022/09/10 09:53:59;;;;;;;4.93;1.20;;;22.00;68.80;;;-142.21;84.80;112049.66;5072048;28;20307;-75
2022/09/10 09:56:36;;;;;;;1.97;1.37;;;22.20;68.80;;;-142.21;82.65;112049.66;5072943;28;20646;-77
2022/09/10 09:59:11;;;;;;;2.73;1.17;;;22.20;66.90;;;-142.21;83.75;112049.66;5066656;28;20597;-77
2022/09/10 10:01:42;;;;;;;2.53;1.07;;;22.20;68.00;;;-142.21;84.05;112049.66;5072582;28;20661;-77
2022/09/10 10:04:23;;;;;;;2.50;1.10;;;22.20;68.10;;;-142.21;81.73;112049.66;5072518;28;20193;-77
2022/09/10 10:06:57;;;;;;;4.70;1.90;;;22.20;66.80;;;-142.21;81.08;112049.66;5068029;28;20239;-75
2022/09/10 10:09:28;;;;;;;1.40;1.10;;;21.90;66.10;;;-142.21;82.22;112049.66;5072329;28;20196;-76